sensor_id;sensor_type;location;lat;lon;timestamp;P1;durP1;ratioP1;P2;durP2;ratioP2
78718;SDS011;68046;53.334;9.538;2023-08-01T00:01:51;4.60;;;2.17;;
78718;SDS011;68046;53.334;9.538;2023-08-01T00:04:21;3.67;;;2.22;;
78718;SDS011;68046;53.334;9.538;2023-08-01T00:06:51;6.05;;;2.67;;
78718;SDS011;68046;53.334;9.538;2023-08-01T00:09:22;6.13;;;2.92;;
78718;SDS011;68046;53.334;9.538;2023-08-01T00:11:51;4.18;;;2.63;;
78718;SDS011;68046;53.334;9.538;2023-08-01T00:14:24;4.35;;;2.47;;
78718;SDS011;68046;53.334;9.538;2023-08-01T00:16:54;4.00;;;2.70;;
78718;SDS011;68046;53.334;9.538;2023-08-01T00:19:24;4.43;;;2.67;;
78718;SDS011;68046;53.334;9.538;2023-08-01T00:21:53;8.05;;;3.97;;
78718;SDS011;68046;53.334;9.538;2023-08-01T00:24:23;5.70;;;3.28;;
78718;SDS011;68046;53.334;9.538;2023-08-01T00:26:53;9.90;;;3.22;;
78718;SDS011;68046;53.334;9.538;2023-08-01T00:31:53;7.55;;;3.78;;
78718;SDS011;68046;53.334;9.538;2023-08-01T00:34:23;9.27;;;4.15;;
78718;SDS011;68046;53.334;9.538;2023-08-01T00:36:52;8.15;;;4.03;;
78718;SDS011;68046;53.334;9.538;2023-08-01T00:39:22;8.23;;;4.38;;
78718;SDS011;68046;53.334;9.538;2023-08-01T00:41:52;5.82;;;4.03;;
78718;SDS011;68046;53.334;9.538;2023-08-01T00:44:22;7.43;;;4.32;;
78718;SDS011;68046;53.334;9.538;2023-08-01T00:46:55;7.68;;;4.78;;
78718;SDS011;68046;53.334;9.538;2023-08-01T00:49:25;7.38;;;4.05;;
78718;SDS011;68046;53.334;9.538;2023-08-01T00:51:56;6.50;;;4.00;;
78718;SDS011;68046;53.334;9.538;2023-08-01T00:54:25;8.07;;;5.60;;
78718;SDS011;68046;53.334;9.538;2023-08-01T00:57:01;6.78;;;4.93;;
78718;SDS011;68046;53.334;9.538;2023-08-01T00:59:31;9.30;;;5.18;;
78718;SDS011;68046;53.334;9.538;2023-08-01T01:04:34;7.78;;;4.82;;
78718;SDS011;68046;53.334;9.538;2023-08-01T01:07:05;10.15;;;5.50;;
78718;SDS011;68046;53.334;9.538;2023-08-01T01:09:35;8.57;;;5.72;;
78718;SDS011;68046;53.334;9.538;2023-08-01T01:12:06;8.50;;;5.13;;
78718;SDS011;68046;53.334;9.538;2023-08-01T01:14:36;8.88;;;5.65;;
78718;SDS011;68046;53.334;9.538;2023-08-01T01:17:09;7.88;;;5.32;;
78718;SDS011;68046;53.334;9.538;2023-08-01T01:19:38;10.65;;;5.95;;
78718;SDS011;68046;53.334;9.538;2023-08-01T01:22:20;8.43;;;5.43;;
78718;SDS011;68046;53.334;9.538;2023-08-01T01:24:50;9.80;;;6.53;;
78718;SDS011;68046;53.334;9.538;2023-08-01T01:27:22;10.90;;;6.25;;
78718;SDS011;68046;53.334;9.538;2023-08-01T01:29:52;9.30;;;6.13;;
78718;SDS011;68046;53.334;9.538;2023-08-01T01:32:23;13.43;;;6.63;;
78718;SDS011;68046;53.334;9.538;2023-08-01T01:34:53;11.30;;;6.40;;
78718;SDS011;68046;53.334;9.538;2023-08-01T01:37:25;10.25;;;6.35;;
78718;SDS011;68046;53.334;9.538;2023-08-01T01:39:55;9.93;;;5.90;;
78718;SDS011;68046;53.334;9.538;2023-08-01T01:42:25;11.93;;;6.90;;
78718;SDS011;68046;53.334;9.538;2023-08-01T01:44:55;11.27;;;6.97;;
78718;SDS011;68046;53.334;9.538;2023-08-01T01:47:25;11.15;;;7.60;;
78718;SDS011;68046;53.334;9.538;2023-08-01T01:49:55;15.48;;;7.63;;
78718;SDS011;68046;53.334;9.538;2023-08-01T01:52:27;11.85;;;7.05;;
78718;SDS011;68046;53.334;9.538;2023-08-01T01:54:57;11.80;;;7.60;;
78718;SDS011;68046;53.334;9.538;2023-08-01T01:57:27;13.20;;;7.43;;
78718;SDS011;68046;53.334;9.538;2023-08-01T01:59:57;13.18;;;8.00;;
78718;SDS011;68046;53.334;9.538;2023-08-01T02:02:27;11.68;;;7.93;;
78718;SDS011;68046;53.334;9.538;2023-08-01T02:04:57;12.63;;;8.15;;
78718;SDS011;68046;53.334;9.538;2023-08-01T02:07:29;14.20;;;8.55;;
78718;SDS011;68046;53.334;9.538;2023-08-01T02:10:00;13.20;;;8.50;;
78718;SDS011;68046;53.334;9.538;2023-08-01T02:12:32;16.05;;;8.68;;
78718;SDS011;68046;53.334;9.538;2023-08-01T02:15:03;12.13;;;8.45;;
78718;SDS011;68046;53.334;9.538;2023-08-01T02:17:34;13.20;;;8.23;;
78718;SDS011;68046;53.334;9.538;2023-08-01T02:20:04;14.52;;;8.88;;
78718;SDS011;68046;53.334;9.538;2023-08-01T02:22:38;15.30;;;9.05;;
78718;SDS011;68046;53.334;9.538;2023-08-01T02:25:08;15.27;;;9.05;;
78718;SDS011;68046;53.334;9.538;2023-08-01T02:27:38;16.27;;;8.55;;
78718;SDS011;68046;53.334;9.538;2023-08-01T02:30:09;11.95;;;8.05;;
78718;SDS011;68046;53.334;9.538;2023-08-01T02:32:39;24.85;;;11.50;;
78718;SDS011;68046;53.334;9.538;2023-08-01T02:35:09;18.63;;;8.60;;
78718;SDS011;68046;53.334;9.538;2023-08-01T02:37:42;14.75;;;8.05;;
78718;SDS011;68046;53.334;9.538;2023-08-01T02:40:12;17.83;;;8.75;;
78718;SDS011;68046;53.334;9.538;2023-08-01T02:42:42;14.68;;;9.30;;
78718;SDS011;68046;53.334;9.538;2023-08-01T02:45:11;14.25;;;8.30;;
78718;SDS011;68046;53.334;9.538;2023-08-01T02:47:42;13.25;;;8.45;;
78718;SDS011;68046;53.334;9.538;2023-08-01T02:50:11;16.67;;;8.73;;
78718;SDS011;68046;53.334;9.538;2023-08-01T02:52:44;14.60;;;8.38;;
78718;SDS011;68046;53.334;9.538;2023-08-01T02:55:14;13.63;;;8.73;;
78718;SDS011;68046;53.334;9.538;2023-08-01T02:57:44;14.85;;;8.30;;
78718;SDS011;68046;53.334;9.538;2023-08-01T03:00:14;17.88;;;8.80;;
78718;SDS011;68046;53.334;9.538;2023-08-01T03:02:45;14.43;;;8.25;;
78718;SDS011;68046;53.334;9.538;2023-08-01T03:05:15;14.50;;;8.00;;
78718;SDS011;68046;53.334;9.538;2023-08-01T03:07:48;14.10;;;8.35;;
78718;SDS011;68046;53.334;9.538;2023-08-01T03:10:18;17.08;;;8.57;;
78718;SDS011;68046;53.334;9.538;2023-08-01T03:13:01;12.70;;;8.02;;
78718;SDS011;68046;53.334;9.538;2023-08-01T03:15:31;13.27;;;8.80;;
78718;SDS011;68046;53.334;9.538;2023-08-01T03:18:01;17.00;;;9.18;;
78718;SDS011;68046;53.334;9.538;2023-08-01T03:20:31;17.52;;;9.15;;
78718;SDS011;68046;53.334;9.538;2023-08-01T03:23:03;13.40;;;9.10;;
78718;SDS011;68046;53.334;9.538;2023-08-01T03:25:33;16.92;;;9.07;;
78718;SDS011;68046;53.334;9.538;2023-08-01T03:28:04;18.50;;;8.15;;
78718;SDS011;68046;53.334;9.538;2023-08-01T03:30:34;14.38;;;8.75;;
78718;SDS011;68046;53.334;9.538;2023-08-01T03:33:04;14.70;;;9.32;;
78718;SDS011;68046;53.334;9.538;2023-08-01T03:35:34;15.02;;;8.48;;
78718;SDS011;68046;53.334;9.538;2023-08-01T03:38:06;14.73;;;8.80;;
78718;SDS011;68046;53.334;9.538;2023-08-01T03:40:36;14.82;;;7.90;;
78718;SDS011;68046;53.334;9.538;2023-08-01T03:43:06;16.02;;;9.00;;
78718;SDS011;68046;53.334;9.538;2023-08-01T03:45:38;13.73;;;8.88;;
78718;SDS011;68046;53.334;9.538;2023-08-01T03:50:38;12.98;;;8.07;;
78718;SDS011;68046;53.334;9.538;2023-08-01T03:53:10;15.02;;;8.77;;
78718;SDS011;68046;53.334;9.538;2023-08-01T03:55:40;17.13;;;9.02;;
78718;SDS011;68046;53.334;9.538;2023-08-01T03:58:10;17.52;;;8.35;;
78718;SDS011;68046;53.334;9.538;2023-08-01T04:00:40;15.18;;;8.95;;
78718;SDS011;68046;53.334;9.538;2023-08-01T04:03:10;13.50;;;8.45;;
78718;SDS011;68046;53.334;9.538;2023-08-01T04:05:40;12.88;;;8.32;;
78718;SDS011;68046;53.334;9.538;2023-08-01T04:08:12;13.63;;;8.45;;
78718;SDS011;68046;53.334;9.538;2023-08-01T04:10:42;18.23;;;8.48;;
78718;SDS011;68046;53.334;9.538;2023-08-01T04:13:11;15.93;;;8.20;;
78718;SDS011;68046;53.334;9.538;2023-08-01T04:15:41;18.58;;;9.40;;
78718;SDS011;68046;53.334;9.538;2023-08-01T04:18:11;17.75;;;9.48;;
78718;SDS011;68046;53.334;9.538;2023-08-01T04:20:41;22.80;;;9.95;;
78718;SDS011;68046;53.334;9.538;2023-08-01T04:23:13;16.95;;;9.98;;
78718;SDS011;68046;53.334;9.538;2023-08-01T04:25:43;18.15;;;9.68;;
78718;SDS011;68046;53.334;9.538;2023-08-01T04:28:13;18.38;;;9.23;;
78718;SDS011;68046;53.334;9.538;2023-08-01T04:30:48;20.17;;;10.48;;
78718;SDS011;68046;53.334;9.538;2023-08-01T04:33:18;15.10;;;9.85;;
78718;SDS011;68046;53.334;9.538;2023-08-01T04:35:48;19.33;;;9.50;;
78718;SDS011;68046;53.334;9.538;2023-08-01T04:38:20;15.80;;;8.93;;
78718;SDS011;68046;53.334;9.538;2023-08-01T04:40:50;12.93;;;7.55;;
78718;SDS011;68046;53.334;9.538;2023-08-01T04:43:20;10.63;;;6.95;;
78718;SDS011;68046;53.334;9.538;2023-08-01T04:45:50;17.90;;;6.78;;
78718;SDS011;68046;53.334;9.538;2023-08-01T04:48:20;10.13;;;6.55;;
78718;SDS011;68046;53.334;9.538;2023-08-01T04:50:49;12.93;;;6.85;;
78718;SDS011;68046;53.334;9.538;2023-08-01T04:53:24;12.45;;;6.70;;
78718;SDS011;68046;53.334;9.538;2023-08-01T04:55:54;12.85;;;6.43;;
78718;SDS011;68046;53.334;9.538;2023-08-01T04:58:24;8.13;;;5.05;;
78718;SDS011;68046;53.334;9.538;2023-08-01T05:00:53;11.32;;;5.13;;
78718;SDS011;68046;53.334;9.538;2023-08-01T05:03:23;9.50;;;4.90;;
78718;SDS011;68046;53.334;9.538;2023-08-01T05:05:53;9.70;;;4.97;;
78718;SDS011;68046;53.334;9.538;2023-08-01T05:08:26;10.00;;;4.65;;
78718;SDS011;68046;53.334;9.538;2023-08-01T05:10:56;7.18;;;3.92;;
78718;SDS011;68046;53.334;9.538;2023-08-01T05:13:26;8.25;;;4.60;;
78718;SDS011;68046;53.334;9.538;2023-08-01T05:15:56;11.05;;;4.70;;
78718;SDS011;68046;53.334;9.538;2023-08-01T05:18:25;7.95;;;4.72;;
78718;SDS011;68046;53.334;9.538;2023-08-01T05:20:55;9.20;;;5.25;;
78718;SDS011;68046;53.334;9.538;2023-08-01T05:23:28;7.65;;;5.35;;
78718;SDS011;68046;53.334;9.538;2023-08-01T05:25:57;15.13;;;7.15;;
78718;SDS011;68046;53.334;9.538;2023-08-01T05:28:27;12.45;;;7.35;;
78718;SDS011;68046;53.334;9.538;2023-08-01T05:30:57;14.80;;;7.15;;
78718;SDS011;68046;53.334;9.538;2023-08-01T05:33:27;15.85;;;8.27;;
78718;SDS011;68046;53.334;9.538;2023-08-01T05:35:57;20.60;;;8.50;;
78718;SDS011;68046;53.334;9.538;2023-08-01T05:40:59;19.05;;;9.20;;
78718;SDS011;68046;53.334;9.538;2023-08-01T05:43:29;18.70;;;8.60;;
78718;SDS011;68046;53.334;9.538;2023-08-01T05:45:59;18.38;;;9.77;;
78718;SDS011;68046;53.334;9.538;2023-08-01T05:48:29;16.10;;;8.60;;
78718;SDS011;68046;53.334;9.538;2023-08-01T05:50:59;11.93;;;6.18;;
78718;SDS011;68046;53.334;9.538;2023-08-01T05:53:31;11.90;;;4.25;;
78718;SDS011;68046;53.334;9.538;2023-08-01T05:56:01;13.80;;;5.25;;
78718;SDS011;68046;53.334;9.538;2023-08-01T05:58:31;8.65;;;4.15;;
78718;SDS011;68046;53.334;9.538;2023-08-01T06:01:01;7.70;;;4.15;;
78718;SDS011;68046;53.334;9.538;2023-08-01T06:03:31;7.03;;;4.65;;
78718;SDS011;68046;53.334;9.538;2023-08-01T06:06:01;6.80;;;4.18;;
78718;SDS011;68046;53.334;9.538;2023-08-01T06:08:34;7.03;;;3.97;;
78718;SDS011;68046;53.334;9.538;2023-08-01T06:11:04;7.45;;;4.05;;
78718;SDS011;68046;53.334;9.538;2023-08-01T06:13:34;8.55;;;3.63;;
78718;SDS011;68046;53.334;9.538;2023-08-01T06:16:03;10.50;;;3.67;;
78718;SDS011;68046;53.334;9.538;2023-08-01T06:18:33;9.07;;;3.92;;
78718;SDS011;68046;53.334;9.538;2023-08-01T06:21:03;9.18;;;3.88;;
78718;SDS011;68046;53.334;9.538;2023-08-01T06:23:36;7.95;;;3.97;;
78718;SDS011;68046;53.334;9.538;2023-08-01T06:26:06;10.40;;;4.57;;
78718;SDS011;68046;53.334;9.538;2023-08-01T06:28:36;11.00;;;4.18;;
78718;SDS011;68046;53.334;9.538;2023-08-01T06:31:05;10.85;;;4.85;;
78718;SDS011;68046;53.334;9.538;2023-08-01T06:33:35;10.15;;;5.50;;
78718;SDS011;68046;53.334;9.538;2023-08-01T06:36:05;9.18;;;4.80;;
78718;SDS011;68046;53.334;9.538;2023-08-01T06:38:38;14.05;;;5.88;;
78718;SDS011;68046;53.334;9.538;2023-08-01T06:41:07;13.30;;;5.90;;
78718;SDS011;68046;53.334;9.538;2023-08-01T06:43:39;14.10;;;5.38;;
78718;SDS011;68046;53.334;9.538;2023-08-01T06:46:12;12.25;;;5.05;;
78718;SDS011;68046;53.334;9.538;2023-08-01T06:48:42;10.48;;;4.70;;
78718;SDS011;68046;53.334;9.538;2023-08-01T06:51:12;9.20;;;5.40;;
78718;SDS011;68046;53.334;9.538;2023-08-01T06:53:45;10.35;;;4.72;;
78718;SDS011;68046;53.334;9.538;2023-08-01T06:56:15;12.30;;;5.28;;
78718;SDS011;68046;53.334;9.538;2023-08-01T06:58:45;8.95;;;5.25;;
78718;SDS011;68046;53.334;9.538;2023-08-01T07:01:15;14.75;;;5.60;;
78718;SDS011;68046;53.334;9.538;2023-08-01T07:03:51;13.05;;;4.88;;
78718;SDS011;68046;53.334;9.538;2023-08-01T07:06:23;14.10;;;5.80;;
78718;SDS011;68046;53.334;9.538;2023-08-01T07:08:56;12.30;;;5.53;;
78718;SDS011;68046;53.334;9.538;2023-08-01T07:11:32;12.63;;;5.10;;
78718;SDS011;68046;53.334;9.538;2023-08-01T07:14:19;13.40;;;5.43;;
78718;SDS011;68046;53.334;9.538;2023-08-01T07:16:48;9.88;;;5.13;;
78718;SDS011;68046;53.334;9.538;2023-08-01T07:19:21;12.40;;;5.18;;
78718;SDS011;68046;53.334;9.538;2023-08-01T07:21:54;14.77;;;5.70;;
78718;SDS011;68046;53.334;9.538;2023-08-01T07:24:45;13.05;;;5.28;;
78718;SDS011;68046;53.334;9.538;2023-08-01T07:27:15;10.52;;;5.22;;
78718;SDS011;68046;53.334;9.538;2023-08-01T07:29:45;13.32;;;5.90;;
78718;SDS011;68046;53.334;9.538;2023-08-01T07:32:14;12.90;;;6.13;;
78718;SDS011;68046;53.334;9.538;2023-08-01T07:34:44;12.20;;;6.05;;
78718;SDS011;68046;53.334;9.538;2023-08-01T07:37:14;13.80;;;6.70;;
78718;SDS011;68046;53.334;9.538;2023-08-01T07:39:46;17.52;;;7.40;;
78718;SDS011;68046;53.334;9.538;2023-08-01T07:42:16;14.10;;;7.20;;
78718;SDS011;68046;53.334;9.538;2023-08-01T07:44:46;21.73;;;9.00;;
78718;SDS011;68046;53.334;9.538;2023-08-01T07:47:16;17.05;;;8.70;;
78718;SDS011;68046;53.334;9.538;2023-08-01T07:49:46;20.05;;;10.30;;
78718;SDS011;68046;53.334;9.538;2023-08-01T07:52:16;15.30;;;8.35;;
78718;SDS011;68046;53.334;9.538;2023-08-01T07:54:48;17.85;;;8.52;;
78718;SDS011;68046;53.334;9.538;2023-08-01T07:57:19;18.42;;;7.85;;
78718;SDS011;68046;53.334;9.538;2023-08-01T07:59:49;18.27;;;7.55;;
78718;SDS011;68046;53.334;9.538;2023-08-01T08:02:19;19.30;;;8.70;;
78718;SDS011;68046;53.334;9.538;2023-08-01T08:04:49;12.27;;;7.13;;
78718;SDS011;68046;53.334;9.538;2023-08-01T08:07:19;16.15;;;8.57;;
78718;SDS011;68046;53.334;9.538;2023-08-01T08:09:51;14.30;;;9.65;;
78718;SDS011;68046;53.334;9.538;2023-08-01T08:12:21;11.93;;;7.55;;
78718;SDS011;68046;53.334;9.538;2023-08-01T08:14:51;15.57;;;7.97;;
78718;SDS011;68046;53.334;9.538;2023-08-01T08:17:21;14.85;;;8.00;;
78718;SDS011;68046;53.334;9.538;2023-08-01T08:19:51;17.15;;;8.52;;
78718;SDS011;68046;53.334;9.538;2023-08-01T08:22:21;15.07;;;8.10;;
78718;SDS011;68046;53.334;9.538;2023-08-01T08:24:53;12.80;;;8.18;;
78718;SDS011;68046;53.334;9.538;2023-08-01T08:27:23;20.42;;;9.57;;
78718;SDS011;68046;53.334;9.538;2023-08-01T08:29:53;14.70;;;8.57;;
78718;SDS011;68046;53.334;9.538;2023-08-01T08:32:23;15.65;;;7.80;;
78718;SDS011;68046;53.334;9.538;2023-08-01T08:34:53;17.60;;;7.47;;
78718;SDS011;68046;53.334;9.538;2023-08-01T08:37:23;18.05;;;8.18;;
78718;SDS011;68046;53.334;9.538;2023-08-01T08:39:55;14.63;;;7.15;;
78718;SDS011;68046;53.334;9.538;2023-08-01T08:42:25;16.25;;;7.32;;
78718;SDS011;68046;53.334;9.538;2023-08-01T08:44:55;11.02;;;6.28;;
78718;SDS011;68046;53.334;9.538;2023-08-01T08:47:27;8.20;;;5.57;;
78718;SDS011;68046;53.334;9.538;2023-08-01T08:49:57;12.13;;;6.35;;
78718;SDS011;68046;53.334;9.538;2023-08-01T08:52:27;12.77;;;5.82;;
78718;SDS011;68046;53.334;9.538;2023-08-01T08:55:00;8.43;;;5.10;;
78718;SDS011;68046;53.334;9.538;2023-08-01T08:57:30;10.50;;;5.60;;
78718;SDS011;68046;53.334;9.538;2023-08-01T09:00:00;13.60;;;4.60;;
78718;SDS011;68046;53.334;9.538;2023-08-01T09:02:34;6.43;;;4.57;;
78718;SDS011;68046;53.334;9.538;2023-08-01T09:05:04;6.40;;;4.40;;
78718;SDS011;68046;53.334;9.538;2023-08-01T09:07:34;9.18;;;4.15;;
78718;SDS011;68046;53.334;9.538;2023-08-01T09:10:11;6.60;;;4.10;;
78718;SDS011;68046;53.334;9.538;2023-08-01T09:12:41;11.70;;;4.05;;
78718;SDS011;68046;53.334;9.538;2023-08-01T09:15:11;10.00;;;4.28;;
78718;SDS011;68046;53.334;9.538;2023-08-01T09:17:48;9.25;;;4.07;;
78718;SDS011;68046;53.334;9.538;2023-08-01T09:20:18;7.57;;;3.70;;
78718;SDS011;68046;53.334;9.538;2023-08-01T09:22:48;6.95;;;4.00;;
78718;SDS011;68046;53.334;9.538;2023-08-01T09:25:30;7.18;;;3.30;;
78718;SDS011;68046;53.334;9.538;2023-08-01T09:28:00;6.00;;;3.20;;
78718;SDS011;68046;53.334;9.538;2023-08-01T09:30:30;7.22;;;3.08;;
78718;SDS011;68046;53.334;9.538;2023-08-01T09:33:00;7.00;;;3.00;;
78718;SDS011;68046;53.334;9.538;2023-08-01T09:35:37;9.63;;;3.08;;
78718;SDS011;68046;53.334;9.538;2023-08-01T09:38:08;7.05;;;2.30;;
78718;SDS011;68046;53.334;9.538;2023-08-01T09:40:40;5.88;;;2.50;;
78718;SDS011;68046;53.334;9.538;2023-08-01T09:43:11;6.80;;;2.38;;
78718;SDS011;68046;53.334;9.538;2023-08-01T09:45:51;6.60;;;2.50;;
78718;SDS011;68046;53.334;9.538;2023-08-01T09:48:23;6.05;;;2.40;;
78718;SDS011;68046;53.334;9.538;2023-08-01T09:51:03;4.63;;;2.33;;
78718;SDS011;68046;53.334;9.538;2023-08-01T09:53:46;4.35;;;2.45;;
78718;SDS011;68046;53.334;9.538;2023-08-01T09:56:19;4.03;;;2.42;;
78718;SDS011;68046;53.334;9.538;2023-08-01T09:58:50;8.07;;;2.40;;
78718;SDS011;68046;53.334;9.538;2023-08-01T10:01:22;4.90;;;2.63;;
78718;SDS011;68046;53.334;9.538;2023-08-01T10:03:54;5.32;;;3.33;;
78718;SDS011;68046;53.334;9.538;2023-08-01T10:06:28;8.02;;;3.25;;
78718;SDS011;68046;53.334;9.538;2023-08-01T10:08:58;5.45;;;3.00;;
78718;SDS011;68046;53.334;9.538;2023-08-01T10:11:33;5.80;;;2.70;;
78718;SDS011;68046;53.334;9.538;2023-08-01T10:14:04;6.65;;;3.50;;
78718;SDS011;68046;53.334;9.538;2023-08-01T10:16:35;5.95;;;3.30;;
78718;SDS011;68046;53.334;9.538;2023-08-01T10:19:06;4.50;;;2.80;;
78718;SDS011;68046;53.334;9.538;2023-08-01T10:21:38;9.05;;;3.30;;
78718;SDS011;68046;53.334;9.538;2023-08-01T10:24:08;5.90;;;2.83;;
78718;SDS011;68046;53.334;9.538;2023-08-01T10:26:41;8.45;;;2.60;;
78718;SDS011;68046;53.334;9.538;2023-08-01T10:29:13;7.65;;;2.90;;
78718;SDS011;68046;53.334;9.538;2023-08-01T10:31:53;5.35;;;2.13;;
78718;SDS011;68046;53.334;9.538;2023-08-01T10:34:23;5.40;;;2.13;;
78718;SDS011;68046;53.334;9.538;2023-08-01T10:36:53;5.18;;;2.30;;
78718;SDS011;68046;53.334;9.538;2023-08-01T10:39:24;4.32;;;2.00;;
78718;SDS011;68046;53.334;9.538;2023-08-01T10:42:01;3.10;;;1.77;;
78718;SDS011;68046;53.334;9.538;2023-08-01T10:44:32;5.20;;;2.15;;
78718;SDS011;68046;53.334;9.538;2023-08-01T10:47:03;3.75;;;2.20;;
78718;SDS011;68046;53.334;9.538;2023-08-01T10:49:34;7.28;;;1.80;;
78718;SDS011;68046;53.334;9.538;2023-08-01T10:52:15;3.13;;;1.67;;
78718;SDS011;68046;53.334;9.538;2023-08-01T10:54:46;4.35;;;2.00;;
78718;SDS011;68046;53.334;9.538;2023-08-01T10:57:18;3.95;;;1.73;;
78718;SDS011;68046;53.334;9.538;2023-08-01T10:59:48;2.72;;;1.60;;
78718;SDS011;68046;53.334;9.538;2023-08-01T11:02:21;3.10;;;1.80;;
78718;SDS011;68046;53.334;9.538;2023-08-01T11:04:56;4.20;;;1.98;;
78718;SDS011;68046;53.334;9.538;2023-08-01T11:07:26;4.22;;;2.03;;
78718;SDS011;68046;53.334;9.538;2023-08-01T11:10:06;6.22;;;2.28;;
78718;SDS011;68046;53.334;9.538;2023-08-01T11:12:40;4.13;;;1.90;;
78718;SDS011;68046;53.334;9.538;2023-08-01T11:15:12;2.90;;;1.80;;
78718;SDS011;68046;53.334;9.538;2023-08-01T11:17:45;3.67;;;1.85;;
78718;SDS011;68046;53.334;9.538;2023-08-01T11:20:17;3.47;;;1.70;;
78718;SDS011;68046;53.334;9.538;2023-08-01T11:22:51;3.67;;;1.80;;
78718;SDS011;68046;53.334;9.538;2023-08-01T11:25:32;4.60;;;1.85;;
78718;SDS011;68046;53.334;9.538;2023-08-01T11:28:06;3.20;;;1.63;;
78718;SDS011;68046;53.334;9.538;2023-08-01T11:30:37;4.07;;;1.75;;
78718;SDS011;68046;53.334;9.538;2023-08-01T11:33:13;4.13;;;1.85;;
78718;SDS011;68046;53.334;9.538;2023-08-01T11:35:44;5.90;;;1.90;;
78718;SDS011;68046;53.334;9.538;2023-08-01T11:38:14;3.83;;;1.80;;
78718;SDS011;68046;53.334;9.538;2023-08-01T11:40:44;4.82;;;1.92;;
78718;SDS011;68046;53.334;9.538;2023-08-01T11:43:18;4.35;;;1.88;;
78718;SDS011;68046;53.334;9.538;2023-08-01T11:45:48;5.35;;;2.10;;
78718;SDS011;68046;53.334;9.538;2023-08-01T11:48:19;3.30;;;1.80;;
78718;SDS011;68046;53.334;9.538;2023-08-01T11:50:55;2.78;;;1.73;;
78718;SDS011;68046;53.334;9.538;2023-08-01T11:53:26;4.45;;;2.00;;
78718;SDS011;68046;53.334;9.538;2023-08-01T11:58:32;3.72;;;1.98;;
78718;SDS011;68046;53.334;9.538;2023-08-01T12:01:06;6.40;;;1.88;;
78718;SDS011;68046;53.334;9.538;2023-08-01T12:03:43;5.03;;;2.20;;
78718;SDS011;68046;53.334;9.538;2023-08-01T12:06:14;4.68;;;2.10;;
78718;SDS011;68046;53.334;9.538;2023-08-01T12:11:18;5.85;;;2.15;;
78718;SDS011;68046;53.334;9.538;2023-08-01T12:14:01;3.47;;;1.92;;
78718;SDS011;68046;53.334;9.538;2023-08-01T12:16:33;5.93;;;2.20;;
78718;SDS011;68046;53.334;9.538;2023-08-01T12:19:03;6.93;;;2.00;;
78718;SDS011;68046;53.334;9.538;2023-08-01T12:21:33;4.72;;;2.20;;
78718;SDS011;68046;53.334;9.538;2023-08-01T12:24:03;4.30;;;1.85;;
78718;SDS011;68046;53.334;9.538;2023-08-01T12:29:06;4.15;;;2.10;;
78718;SDS011;68046;53.334;9.538;2023-08-01T12:31:37;4.70;;;1.90;;
78718;SDS011;68046;53.334;9.538;2023-08-01T12:34:07;4.88;;;2.00;;
78718;SDS011;68046;53.334;9.538;2023-08-01T12:36:37;3.67;;;1.58;;
78718;SDS011;68046;53.334;9.538;2023-08-01T12:39:04;3.58;;;1.83;;
78718;SDS011;68046;53.334;9.538;2023-08-01T12:41:37;3.85;;;1.70;;
78718;SDS011;68046;53.334;9.538;2023-08-01T12:51:52;3.08;;;1.50;;
78718;SDS011;68046;53.334;9.538;2023-08-01T12:54:54;7.30;;;1.90;;
78718;SDS011;68046;53.334;9.538;2023-08-01T12:57:25;5.40;;;1.90;;
78718;SDS011;68046;53.334;9.538;2023-08-01T12:59:56;1.85;;;1.30;;
78718;SDS011;68046;53.334;9.538;2023-08-01T13:02:26;3.95;;;1.52;;
78718;SDS011;68046;53.334;9.538;2023-08-01T13:07:29;6.35;;;2.30;;
78718;SDS011;68046;53.334;9.538;2023-08-01T13:12:29;6.30;;;1.73;;
78718;SDS011;68046;53.334;9.538;2023-08-01T13:14:59;7.05;;;1.40;;
78718;SDS011;68046;53.334;9.538;2023-08-01T13:17:43;4.13;;;1.10;;
78718;SDS011;68046;53.334;9.538;2023-08-01T13:22:46;2.92;;;1.50;;
78718;SDS011;68046;53.334;9.538;2023-08-01T13:25:16;3.03;;;1.50;;
78718;SDS011;68046;53.334;9.538;2023-08-01T13:27:46;3.10;;;1.60;;
78718;SDS011;68046;53.334;9.538;2023-08-01T13:30:16;4.95;;;1.75;;
78718;SDS011;68046;53.334;9.538;2023-08-01T13:32:46;5.53;;;1.90;;
78718;SDS011;68046;53.334;9.538;2023-08-01T13:35:19;6.93;;;2.00;;
78718;SDS011;68046;53.334;9.538;2023-08-01T13:37:49;6.50;;;1.90;;
78718;SDS011;68046;53.334;9.538;2023-08-01T13:40:19;6.75;;;1.70;;
78718;SDS011;68046;53.334;9.538;2023-08-01T13:42:49;5.47;;;2.05;;
78718;SDS011;68046;53.334;9.538;2023-08-01T13:45:19;3.38;;;1.50;;
78718;SDS011;68046;53.334;9.538;2023-08-01T13:47:48;5.10;;;1.55;;
78718;SDS011;68046;53.334;9.538;2023-08-01T13:50:21;5.13;;;1.45;;
78718;SDS011;68046;53.334;9.538;2023-08-01T13:52:51;3.97;;;1.80;;
78718;SDS011;68046;53.334;9.538;2023-08-01T13:55:21;2.60;;;1.50;;
78718;SDS011;68046;53.334;9.538;2023-08-01T13:57:51;4.03;;;1.80;;
78718;SDS011;68046;53.334;9.538;2023-08-01T14:00:20;3.78;;;1.42;;
78718;SDS011;68046;53.334;9.538;2023-08-01T14:02:50;4.05;;;1.50;;
78718;SDS011;68046;53.334;9.538;2023-08-01T14:05:24;3.33;;;1.50;;
78718;SDS011;68046;53.334;9.538;2023-08-01T14:07:54;5.13;;;1.77;;
78718;SDS011;68046;53.334;9.538;2023-08-01T14:10:23;4.70;;;1.95;;
78718;SDS011;68046;53.334;9.538;2023-08-01T14:12:53;3.72;;;1.40;;
78718;SDS011;68046;53.334;9.538;2023-08-01T14:15:23;3.42;;;1.65;;
78718;SDS011;68046;53.334;9.538;2023-08-01T14:17:53;4.82;;;1.90;;
78718;SDS011;68046;53.334;9.538;2023-08-01T14:20:26;4.15;;;1.77;;
78718;SDS011;68046;53.334;9.538;2023-08-01T14:22:55;3.60;;;2.10;;
78718;SDS011;68046;53.334;9.538;2023-08-01T14:25:26;4.80;;;1.90;;
78718;SDS011;68046;53.334;9.538;2023-08-01T14:27:57;3.42;;;1.65;;
78718;SDS011;68046;53.334;9.538;2023-08-01T14:30:27;5.97;;;1.75;;
78718;SDS011;68046;53.334;9.538;2023-08-01T14:32:59;4.05;;;2.30;;
78718;SDS011;68046;53.334;9.538;2023-08-01T14:35:32;3.90;;;1.65;;
78718;SDS011;68046;53.334;9.538;2023-08-01T14:38:02;3.10;;;1.83;;
78718;SDS011;68046;53.334;9.538;2023-08-01T14:40:33;4.00;;;1.70;;
78718;SDS011;68046;53.334;9.538;2023-08-01T14:43:10;4.72;;;1.90;;
78718;SDS011;68046;53.334;9.538;2023-08-01T14:45:40;3.47;;;1.80;;
78718;SDS011;68046;53.334;9.538;2023-08-01T14:48:10;3.53;;;1.65;;
78718;SDS011;68046;53.334;9.538;2023-08-01T14:50:43;3.70;;;1.70;;
78718;SDS011;68046;53.334;9.538;2023-08-01T14:53:13;4.45;;;1.60;;
78718;SDS011;68046;53.334;9.538;2023-08-01T14:55:43;9.75;;;1.95;;
78718;SDS011;68046;53.334;9.538;2023-08-01T14:58:12;3.80;;;1.63;;
78718;SDS011;68046;53.334;9.538;2023-08-01T15:00:42;5.25;;;2.20;;
78718;SDS011;68046;53.334;9.538;2023-08-01T15:03:13;3.58;;;1.67;;
78718;SDS011;68046;53.334;9.538;2023-08-01T15:05:46;4.47;;;1.70;;
78718;SDS011;68046;53.334;9.538;2023-08-01T15:08:16;4.38;;;2.00;;
78718;SDS011;68046;53.334;9.538;2023-08-01T15:10:46;3.15;;;1.50;;
78718;SDS011;68046;53.334;9.538;2023-08-01T15:13:16;5.72;;;1.67;;
78718;SDS011;68046;53.334;9.538;2023-08-01T15:15:45;4.15;;;1.70;;
78718;SDS011;68046;53.334;9.538;2023-08-01T15:18:15;3.85;;;1.80;;
78718;SDS011;68046;53.334;9.538;2023-08-01T15:20:48;6.22;;;1.70;;
78718;SDS011;68046;53.334;9.538;2023-08-01T15:23:17;4.55;;;2.35;;
78718;SDS011;68046;53.334;9.538;2023-08-01T15:25:51;4.30;;;1.50;;
78718;SDS011;68046;53.334;9.538;2023-08-01T15:28:23;5.97;;;1.70;;
78718;SDS011;68046;53.334;9.538;2023-08-01T15:31:01;8.80;;;1.70;;
78718;SDS011;68046;53.334;9.538;2023-08-01T15:33:33;1.85;;;1.23;;
78718;SDS011;68046;53.334;9.538;2023-08-01T15:36:06;6.57;;;1.40;;
78718;SDS011;68046;53.334;9.538;2023-08-01T15:38:37;3.63;;;1.58;;